Time;durP1;ratioP1;P1;durP2;ratioP2;P2;SDS_P1;SDS_P2;PMS_P1;PMS_P2;Temp;Humidity;BMP_temperature;BMP_pressure;BME280_temperature;BME280_humidity;BME280_pressure;Samples;Min_cycle;Max_cycle;Signal;HPM_P1;HPM_P2
2022/07/14 00:01:19;;;;;;;0.57;0.20;;;14.50;99.90;;;;;;4906359;29;20786;-80
2022/07/14 00:03:44;;;;;;;0.93;0.50;;;14.50;99.90;;;;;;4906941;29;20187;-81
2022/07/14 00:06:10;;;;;;;2.30;0.20;;;14.40;99.90;;;;;;4904937;29;20171;-81
2022/07/14 00:08:35;;;;;;;0.60;0.27;;;14.40;99.90;;;;;;4898045;29;20179;-81
2022/07/14 00:11:03;;;;;;;1.57;0.30;;;14.40;99.90;;;;;;4897579;29;20746;-80
2022/07/14 00:13:28;;;;;;;1.33;0.30;;;14.30;99.90;;;;;;4898147;29;20176;-81
2022/07/14 00:15:54;;;;;;;0.87;0.20;;;14.20;99.90;;;;;;4897964;29;20419;-82
2022/07/14 00:18:19;;;;;;;0.67;0.20;;;14.20;99.90;;;;;;4897882;29;20225;-81
2022/07/14 00:20:45;;;;;;;1.30;0.20;;;14.10;99.90;;;;;;4898120;29;20644;-81
2022/07/14 00:23:10;;;;;;;2.70;0.40;;;14.10;99.90;;;;;;4901949;29;20175;-80
2022/07/14 00:25:36;;;;;;;3.50;0.60;;;14.10;99.90;;;;;;4900676;29;20222;-81
2022/07/14 00:28:02;;;;;;;2.00;0.37;;;14.10;99.90;;;;;;4900291;29;20190;-81
2022/07/14 00:30:27;;;;;;;2.20;0.30;;;14.10;99.90;;;;;;4901818;29;20179;-81
2022/07/14 00:32:54;;;;;;;1.37;0.20;;;14.00;99.90;;;;;;4901671;29;20273;-81
2022/07/14 00:35:20;;;;;;;2.97;0.20;;;13.90;99.90;;;;;;4901666;29;20191;-81
2022/07/14 00:37:45;;;;;;;2.43;0.30;;;13.90;99.90;;;;;;4901616;29;20482;-81
2022/07/14 00:40:11;;;;;;;0.83;0.30;;;13.90;99.90;;;;;;4901708;29;20531;-80
2022/07/14 00:42:40;;;;;;;3.07;0.67;;;13.80;99.90;;;;;;4901237;29;20186;-81
2022/07/14 00:45:07;;;;;;;0.60;0.20;;;13.90;99.90;;;;;;4901507;29;20485;-81
2022/07/14 00:47:33;;;;;;;1.80;0.50;;;13.80;99.90;;;;;;4901349;29;20799;-81
2022/07/14 00:49:59;;;;;;;0.97;0.20;;;13.80;99.90;;;;;;4901438;29;20439;-81
2022/07/14 00:52:27;;;;;;;1.17;0.40;;;13.80;99.90;;;;;;4900281;29;20887;-81
2022/07/14 00:54:53;;;;;;;2.50;0.30;;;13.70;99.90;;;;;;4901318;29;20914;-81
2022/07/14 00:57:18;;;;;;;1.10;0.43;;;13.70;99.90;;;;;;4900893;29;20525;-81
2022/07/14 00:59:45;;;;;;;1.37;0.30;;;13.60;99.90;;;;;;4901258;29;20435;-80
2022/07/14 01:02:11;;;;;;;1.80;0.30;;;13.60;99.90;;;;;;4901361;29;20553;-80
2022/07/14 01:04:36;;;;;;;1.70;0.20;;;13.50;99.90;;;;;;4901137;29;20470;-81
2022/07/14 01:07:02;;;;;;;1.23;0.30;;;13.50;99.90;;;;;;4901167;29;20176;-81
2022/07/14 01:09:28;;;;;;;1.53;0.30;;;13.60;99.90;;;;;;4901182;29;20663;-81
2022/07/14 01:11:53;;;;;;;0.40;0.20;;;13.50;99.90;;;;;;4899517;29;20573;-81
2022/07/14 01:14:19;;;;;;;1.60;0.30;;;13.50;99.90;;;;;;4899910;29;20197;-81
2022/07/14 01:16:44;;;;;;;0.70;0.20;;;13.60;99.90;;;;;;4899581;29;20308;-81
2022/07/14 01:19:10;;;;;;;2.00;0.40;;;13.50;99.90;;;;;;4899787;29;20560;-81
2022/07/14 01:21:35;;;;;;;3.40;1.13;;;13.50;99.90;;;;;;4899788;29;20189;-82
2022/07/14 01:24:01;;;;;;;1.83;0.40;;;13.50;99.90;;;;;;4899717;29;20308;-82
2022/07/14 01:26:26;;;;;;;2.30;0.50;;;13.40;99.90;;;;;;4899373;29;20175;-81
2022/07/14 01:28:52;;;;;;;1.80;0.53;;;13.30;99.90;;;;;;4899653;29;20206;-81
2022/07/14 01:31:17;;;;;;;1.53;0.20;;;13.30;99.90;;;;;;4899586;29;20265;-81
2022/07/14 01:33:43;;;;;;;3.30;1.03;;;13.20;99.90;;;;;;4899225;29;20229;-81
2022/07/14 01:36:08;;;;;;;6.20;0.60;;;13.20;99.90;;;;;;4898311;29;20175;-81
2022/07/14 01:38:34;;;;;;;1.97;0.63;;;13.20;99.90;;;;;;4899420;29;20277;-82
2022/07/14 01:40:59;;;;;;;0.60;0.30;;;13.20;99.90;;;;;;4899124;29;20181;-82
2022/07/14 01:43:25;;;;;;;1.27;0.70;;;13.10;99.90;;;;;;4899418;29;20626;-81
2022/07/14 01:45:50;;;;;;;0.67;0.40;;;13.10;99.90;;;;;;4899320;29;20634;-81
2022/07/14 01:48:16;;;;;;;2.73;0.30;;;13.00;99.90;;;;;;4899345;29;20228;-82
2022/07/14 01:50:41;;;;;;;2.67;0.40;;;13.00;99.90;;;;;;4899286;29;20185;-82
2022/07/14 01:53:07;;;;;;;1.93;0.30;;;12.90;99.90;;;;;;4899353;29;20654;-82
2022/07/14 01:55:32;;;;;;;0.83;0.30;;;12.90;99.90;;;;;;4899311;29;20193;-81
2022/07/14 01:57:58;;;;;;;0.83;0.20;;;12.80;99.90;;;;;;4898848;29;20281;-81
2022/07/14 02:00:24;;;;;;;0.40;0.20;;;12.70;99.90;;;;;;4899137;29;20325;-81
2022/07/14 02:02:49;;;;;;;1.53;0.20;;;12.70;99.90;;;;;;4897840;29;20528;-81
2022/07/14 02:05:15;;;;;;;4.43;0.40;;;12.60;99.90;;;;;;4899056;29;20178;-81
2022/07/14 02:07:40;;;;;;;1.63;0.37;;;12.60;99.90;;;;;;4899073;29;20185;-81
2022/07/14 02:12:52;;;;;;;1.40;0.30;;;12.60;99.90;;;;;;4907875;29;20195;-81
2022/07/14 02:15:18;;;;;;;2.33;0.53;;;12.50;99.90;;;;;;4899948;29;20416;-82
2022/07/14 02:17:43;;;;;;;0.53;0.30;;;12.60;99.90;;;;;;4899781;29;20308;-81
2022/07/14 02:20:10;;;;;;;1.43;0.40;;;12.50;99.90;;;;;;4899879;29;20179;-81
2022/07/14 02:22:37;;;;;;;1.23;0.50;;;12.50;99.90;;;;;;4899785;29;20204;-81
2022/07/14 02:25:03;;;;;;;0.87;0.30;;;12.40;99.90;;;;;;4899742;29;20450;-81
2022/07/14 02:27:28;;;;;;;1.23;0.30;;;12.40;99.90;;;;;;4899395;29;20433;-81
2022/07/14 02:29:54;;;;;;;0.73;0.20;;;12.30;99.90;;;;;;4899621;29;20713;-81
2022/07/14 02:32:19;;;;;;;1.80;0.40;;;12.30;99.90;;;;;;4898442;29;20204;-82
2022/07/14 02:34:45;;;;;;;1.30;0.50;;;12.30;99.90;;;;;;4898524;29;20180;-80
2022/07/14 02:37:10;;;;;;;1.97;0.43;;;12.30;99.90;;;;;;4898935;29;20323;-81
2022/07/14 02:39:36;;;;;;;3.13;1.03;;;12.30;99.90;;;;;;4897708;29;20178;-81
2022/07/14 02:42:02;;;;;;;1.70;0.30;;;12.20;99.90;;;;;;4897421;29;20177;-81
2022/07/14 02:44:27;;;;;;;1.60;0.20;;;12.20;99.90;;;;;;4897661;29;20177;-81
2022/07/14 02:46:53;;;;;;;1.80;0.20;;;12.20;99.90;;;;;;4899306;29;20303;-81
2022/07/14 02:49:18;;;;;;;2.47;0.30;;;12.20;99.90;;;;;;4899332;29;20168;-82
2022/07/14 02:51:44;;;;;;;1.77;0.20;;;12.20;99.90;;;;;;4899342;29;20181;-81
2022/07/14 02:54:09;;;;;;;0.80;0.20;;;12.20;99.90;;;;;;4899274;29;20173;-82
2022/07/14 02:56:35;;;;;;;0.50;0.20;;;12.10;99.90;;;;;;4898849;29;20281;-81
2022/07/14 02:59:00;;;;;;;0.53;0.40;;;12.10;99.90;;;;;;4899099;29;20177;-82
2022/07/14 03:01:25;;;;;;;2.10;0.30;;;12.10;99.90;;;;;;4899055;29;20177;-82
2022/07/14 03:03:51;;;;;;;1.60;0.30;;;12.10;99.90;;;;;;4899027;29;20263;-81
2022/07/14 03:06:19;;;;;;;0.70;0.20;;;12.10;99.90;;;;;;4897768;29;20188;-81
2022/07/14 03:08:44;;;;;;;1.53;0.20;;;12.10;99.90;;;;;;4898871;29;20709;-81
2022/07/14 03:11:10;;;;;;;1.80;0.20;;;12.10;99.90;;;;;;4898364;29;20501;-82
2022/07/14 03:13:36;;;;;;;2.33;0.20;;;12.10;99.90;;;;;;4898822;29;20181;-82
2022/07/14 03:16:02;;;;;;;0.60;0.20;;;12.00;99.90;;;;;;4898912;29;20185;-82
2022/07/14 03:18:28;;;;;;;1.43;0.30;;;11.90;99.90;;;;;;4898838;29;20182;-81
2022/07/14 03:20:54;;;;;;;0.77;0.20;;;11.90;99.90;;;;;;4898768;29;20424;-81
2022/07/14 03:23:20;;;;;;;0.50;0.30;;;11.90;99.90;;;;;;4898683;29;20236;-82
2022/07/14 03:25:46;;;;;;;0.40;0.20;;;11.90;99.90;;;;;;4898203;29;20211;-81
2022/07/14 03:28:13;;;;;;;1.33;0.37;;;11.90;99.90;;;;;;4898587;29;20984;-82
2022/07/14 03:30:39;;;;;;;4.17;0.30;;;11.90;99.90;;;;;;4898544;29;20563;-82
2022/07/14 03:33:04;;;;;;;1.47;0.33;;;11.90;99.90;;;;;;4898580;29;20434;-82
2022/07/14 03:35:30;;;;;;;1.33;0.20;;;11.90;99.90;;;;;;4898534;29;20928;-82
2022/07/14 03:37:55;;;;;;;1.20;0.37;;;11.90;99.90;;;;;;4898499;29;20196;-82
2022/07/14 03:40:21;;;;;;;1.23;0.80;;;11.90;99.90;;;;;;4897292;29;20199;-82
2022/07/14 03:42:46;;;;;;;0.80;0.20;;;12.00;99.90;;;;;;4898101;29;20207;-82
2022/07/14 03:45:12;;;;;;;0.97;0.20;;;12.00;99.90;;;;;;4898463;29;20176;-82
2022/07/14 03:47:37;;;;;;;3.60;1.53;;;12.10;99.90;;;;;;4897234;29;20277;-82
2022/07/14 03:50:03;;;;;;;1.77;0.30;;;12.20;99.90;;;;;;4898384;29;20176;-82
2022/07/14 03:52:29;;;;;;;5.13;0.30;;;12.20;99.90;;;;;;4898433;29;20167;-82
2022/07/14 03:54:55;;;;;;;2.90;0.20;;;12.40;99.90;;;;;;4901536;29;20458;-82
2022/07/14 03:57:20;;;;;;;3.80;0.57;;;12.40;99.90;;;;;;4897181;29;20190;-82
2022/07/14 03:59:48;;;;;;;2.73;0.37;;;12.30;99.90;;;;;;4898203;29;20265;-82
2022/07/14 04:02:13;;;;;;;1.03;0.30;;;12.30;99.90;;;;;;4898221;29;20654;-82
2022/07/14 04:04:39;;;;;;;1.53;0.20;;;12.50;99.90;;;;;;4898295;29;20432;-82
2022/07/14 04:07:05;;;;;;;0.53;0.20;;;12.50;99.90;;;;;;4898133;29;20565;-82
2022/07/14 04:09:32;;;;;;;1.70;0.20;;;12.60;99.90;;;;;;4898028;29;20425;-82
2022/07/14 04:11:57;;;;;;;2.57;0.20;;;12.60;99.90;;;;;;4897493;29;20460;-82
2022/07/14 04:14:23;;;;;;;0.97;0.30;;;12.60;99.90;;;;;;4898037;29;20451;-82
2022/07/14 04:16:49;;;;;;;2.23;0.20;;;12.70;99.90;;;;;;4898002;29;20213;-81
2022/07/14 04:19:15;;;;;;;3.03;0.50;;;12.60;99.90;;;;;;4897975;29;20454;-81
2022/07/14 04:21:41;;;;;;;1.23;0.40;;;12.60;99.90;;;;;;4897955;29;20426;-82
2022/07/14 04:24:06;;;;;;;0.50;0.20;;;12.60;99.90;;;;;;4897947;29;20174;-82
2022/07/14 04:26:32;;;;;;;2.03;0.23;;;12.50;99.90;;;;;;4897482;29;20177;-82
2022/07/14 04:28:58;;;;;;;2.63;0.37;;;12.60;99.90;;;;;;4897868;29;20188;-82
2022/07/14 04:31:24;;;;;;;2.67;0.33;;;12.60;99.90;;;;;;4897954;29;20202;-82
2022/07/14 04:33:49;;;;;;;1.40;0.50;;;12.80;99.90;;;;;;4897883;29;20830;-82
2022/07/14 04:36:15;;;;;;;1.00;0.40;;;12.80;99.90;;;;;;4897862;29;20261;-82
2022/07/14 04:38:41;;;;;;;2.13;0.20;;;12.90;99.90;;;;;;4897832;29;20254;-82
2022/07/14 04:41:07;;;;;;;1.43;0.30;;;12.90;99.90;;;;;;4897450;29;20185;-82
2022/07/14 04:43:33;;;;;;;1.63;0.40;;;12.90;99.90;;;;;;4897794;29;20433;-82
2022/07/14 04:45:58;;;;;;;2.83;0.90;;;12.90;99.90;;;;;;4897715;29;20266;-82
2022/07/14 04:48:24;;;;;;;1.60;0.20;;;13.00;99.90;;;;;;4897707;29;20299;-82
2022/07/14 04:53:37;;;;;;;1.27;0.27;;;13.20;99.90;;;;;;4897999;29;20945;-82
2022/07/14 04:56:03;;;;;;;2.50;0.50;;;13.20;99.90;;;;;;4897331;29;20580;-82
2022/07/14 04:58:30;;;;;;;1.63;0.40;;;13.30;99.90;;;;;;4897601;29;20468;-82
2022/07/14 05:00:58;;;;;;;1.70;0.53;;;13.30;99.90;;;;;;4897509;29;20183;-82
2022/07/14 05:03:24;;;;;;;1.47;0.80;;;13.40;99.90;;;;;;4897440;29;20788;-82
2022/07/14 05:05:49;;;;;;;0.63;0.37;;;13.50;99.90;;;;;;4897623;29;20431;-82
2022/07/14 05:08:15;;;;;;;2.40;0.50;;;13.50;99.90;;;;;;4899928;29;20218;-81
2022/07/14 05:10:40;;;;;;;3.87;0.90;;;13.50;99.90;;;;;;4900593;29;20752;-82
2022/07/14 05:13:06;;;;;;;2.23;0.50;;;13.60;99.90;;;;;;4901111;29;20317;-82
2022/07/14 05:15:31;;;;;;;1.67;1.00;;;13.60;99.90;;;;;;4901008;29;20188;-81
2022/07/14 05:17:57;;;;;;;1.83;0.60;;;13.70;99.90;;;;;;4900954;29;20598;-81
2022/07/14 05:20:22;;;;;;;2.63;0.50;;;13.80;99.90;;;;;;4900869;29;20201;-82
2022/07/14 05:22:48;;;;;;;1.07;0.47;;;13.90;99.90;;;;;;4900807;29;20182;-82
2022/07/14 05:25:14;;;;;;;2.73;0.50;;;14.00;99.90;;;;;;4900516;29;20181;-82
2022/07/14 05:27:41;;;;;;;2.37;0.57;;;14.10;99.90;;;;;;4900861;29;20226;-82
2022/07/14 05:30:08;;;;;;;1.77;0.60;;;14.20;99.90;;;;;;4900738;29;20425;-81
2022/07/14 05:32:37;;;;;;;2.30;0.50;;;14.30;99.90;;;;;;4900729;29;20838;-82
2022/07/14 05:35:04;;;;;;;3.37;0.70;;;14.50;99.90;;;;;;4900698;29;20428;-81
2022/07/14 05:37:30;;;;;;;1.87;0.70;;;14.70;99.90;;;;;;4900687;29;20954;-82
2022/07/14 05:39:55;;;;;;;0.70;0.30;;;14.90;99.90;;;;;;4900611;29;20507;-82
2022/07/14 05:42:21;;;;;;;3.13;0.77;;;15.00;99.90;;;;;;4900244;29;20189;-82
2022/07/14 05:44:47;;;;;;;1.20;0.20;;;15.10;99.90;;;;;;4900528;29;20195;-82
2022/07/14 05:47:13;;;;;;;0.80;0.20;;;15.30;99.90;;;;;;4900370;29;20836;-82
2022/07/14 05:49:40;;;;;;;1.73;0.30;;;15.60;99.90;;;;;;4900456;29;20425;-82
2022/07/14 05:52:06;;;;;;;2.70;0.40;;;15.80;99.90;;;;;;4900416;29;20661;-82
2022/07/14 05:54:32;;;;;;;2.67;0.50;;;15.80;99.90;;;;;;4900316;29;20452;-82
2022/07/14 05:56:57;;;;;;;1.07;0.20;;;15.90;99.90;;;;;;4899786;29;20185;-82
2022/07/14 05:59:23;;;;;;;2.60;0.57;;;16.10;99.90;;;;;;4900252;29;20426;-82
2022/07/14 06:01:48;;;;;;;0.60;0.20;;;16.30;99.90;;;;;;4898986;29;20188;-83
2022/07/14 06:04:14;;;;;;;2.50;0.73;;;16.50;99.90;;;;;;4900181;29;20186;-82
2022/07/14 06:06:45;;;;;;;1.83;0.27;;;16.80;87.60;;;;;;4900072;29;20261;-82
2022/07/14 06:09:11;;;;;;;2.60;0.67;;;17.30;14.10;;;;;;4900081;29;20178;-82
2022/07/14 06:11:36;;;;;;;2.10;0.40;;;17.50;1.00;;;;;;4899538;29;20470;-82
2022/07/14 06:14:04;;;;;;;0.70;0.20;;;17.40;1.00;;;;;;4899916;29;20180;-82
2022/07/14 06:16:30;;;;;;;0.60;0.20;;;17.30;1.00;;;;;;4899875;29;20182;-82
2022/07/14 06:18:56;;;;;;;1.03;0.40;;;17.40;1.00;;;;;;4897569;29;20770;-82
2022/07/14 06:21:21;;;;;;;0.80;0.30;;;17.50;1.00;;;;;;4899851;29;20652;-82
2022/07/14 06:23:47;;;;;;;4.63;0.33;;;17.50;1.00;;;;;;4899791;29;20424;-82
2022/07/14 06:26:12;;;;;;;1.27;0.30;;;17.60;99.90;;;;;;4899374;29;20234;-81
2022/07/14 06:28:38;;;;;;;1.03;0.40;;;17.70;99.90;;;;;;4899549;29;20216;-81
2022/07/14 06:31:04;;;;;;;0.83;0.20;;;17.80;1.00;;;;;;4899659;29;20700;-82
2022/07/14 06:33:29;;;;;;;1.07;0.30;;;18.10;97.50;;;;;;4899602;29;20178;-82
2022/07/14 06:35:55;;;;;;;0.70;0.20;;;18.40;1.00;;;;;;4899657;29;20238;-82
2022/07/14 06:38:20;;;;;;;2.03;0.30;;;18.20;44.30;;;;;;4899541;29;20182;-82
2022/07/14 06:40:46;;;;;;;1.57;0.10;;;17.90;99.90;;;;;;4899124;29;20191;-82
2022/07/14 06:43:11;;;;;;;1.43;0.20;;;17.50;99.90;;;;;;4899429;29;20637;-82
2022/07/14 06:45:38;;;;;;;1.13;0.40;;;17.80;99.90;;;;;;4899286;29;20188;-82
2022/07/14 06:48:04;;;;;;;0.50;0.20;;;17.20;99.90;;;;;;4899298;29;20559;-82
2022/07/14 06:50:29;;;;;;;0.63;0.10;;;18.00;99.90;;;;;;4899315;29;20425;-82
2022/07/14 06:52:55;;;;;;;1.67;0.20;;;19.50;99.90;;;;;;4899226;29;20652;-82
2022/07/14 06:55:20;;;;;;;0.80;0.20;;;21.00;1.00;;;;;;4898848;29;20182;-83
2022/07/14 06:57:46;;;;;;;1.13;0.20;;;22.70;99.90;;;;;;4899171;29;20179;-82
2022/07/14 07:00:12;;;;;;;0.90;0.10;;;23.00;99.90;;;;;;4897843;29;20261;-82
2022/07/14 07:02:38;;;;;;;1.10;0.23;;;20.60;99.90;;;;;;4899133;29;20179;-82
2022/07/14 07:07:59;;;;;;;0.87;0.20;;;24.30;51.10;;;;;;4906528;29;20229;-83
2022/07/14 07:10:25;;;;;;;0.50;0.10;;;24.70;1.00;;;;;;4898355;29;20459;-82
2022/07/14 07:12:50;;;;;;;0.60;0.27;;;21.30;1.00;;;;;;4898923;29;20502;-83
2022/07/14 07:15:16;;;;;;;0.50;0.20;;;19.60;99.90;;;;;;4898902;29;21005;-82
2022/07/14 07:17:41;;;;;;;0.37;0.10;;;22.10;80.50;;;;;;4898801;29;20667;-83
2022/07/14 07:20:09;;;;;;;0.60;0.20;;;22.10;29.50;;;;;;4898806;29;20182;-82
2022/07/14 07:22:35;;;;;;;0.70;0.20;;;23.40;21.90;;;;;;4882253;29;20286;-82
2022/07/14 07:25:02;;;;;;;0.57;0.20;;;23.30;5.70;;;;;;4898353;29;20421;-84
2022/07/14 07:27:28;;;;;;;1.03;0.20;;;23.10;1.00;;;;;;4898539;29;20475;-83
2022/07/14 07:29:53;;;;;;;0.70;0.20;;;20.60;18.70;;;;;;4898329;29;20450;-83
2022/07/14 07:32:19;;;;;;;0.50;0.30;;;21.20;99.90;;;;;;4898555;29;20187;-83
2022/07/14 07:34:44;;;;;;;0.77;0.23;;;23.90;26.10;;;;;;4898505;29;20175;-82
2022/07/14 07:37:10;;;;;;;0.40;0.20;;;23.60;1.00;;;;;;4898541;29;20175;-82
2022/07/14 07:39:35;;;;;;;1.33;0.27;;;21.70;13.30;;;;;;4898427;29;20186;-83
2022/07/14 07:42:01;;;;;;;2.77;0.20;;;24.10;1.00;;;;;;4896776;29;20202;-83
2022/07/14 07:44:28;;;;;;;2.30;0.20;;;24.40;1.00;;;;;;4898300;29;20174;-83
2022/07/14 07:46:54;;;;;;;0.77;0.20;;;24.60;1.00;;;;;;4898274;29;20171;-82
2022/07/14 07:49:19;;;;;;;1.17;0.20;;;25.30;1.00;;;;;;4898274;29;20796;-82
2022/07/14 07:51:45;;;;;;;0.80;0.30;;;24.20;1.00;;;;;;4897030;29;20634;-83
2022/07/14 07:54:10;;;;;;;2.00;1.90;;;24.50;1.00;;;;;;4898218;29;20227;-83
2022/07/14 07:56:36;;;;;;;0.40;0.20;;;25.30;1.00;;;;;;4897915;29;20647;-83
2022/07/14 07:59:02;;;;;;;0.40;0.20;;;25.70;1.00;;;;;;4898177;29;20190;-83
2022/07/14 08:01:27;;;;;;;0.73;0.27;;;26.00;1.00;;;;;;4898182;29;20186;-83
2022/07/14 08:03:53;;;;;;;0.30;0.20;;;25.70;1.00;;;;;;4898120;29;20185;-83
2022/07/14 08:06:18;;;;;;;0.40;0.20;;;25.90;1.00;;;;;;4896881;29;20647;-83
2022/07/14 08:08:44;;;;;;;0.73;0.20;;;26.20;1.00;;;;;;4896810;29;20221;-83
2022/07/14 08:11:09;;;;;;;0.67;0.20;;;23.40;1.00;;;;;;4897526;29;20246;-83
2022/07/14 08:13:35;;;;;;;1.10;0.20;;;25.40;1.00;;;;;;4898087;29;20258;-83
2022/07/14 08:16:00;;;;;;;0.93;0.20;;;26.60;1.00;;;;;;4898087;29;20263;-83
2022/07/14 08:18:26;;;;;;;2.03;0.20;;;23.70;1.00;;;;;;4897932;29;20179;-83
2022/07/14 08:20:52;;;;;;;1.10;0.20;;;21.70;1.00;;;;;;4898021;29;20186;-82
2022/07/14 08:23:18;;;;;;;1.90;0.20;;;23.20;1.00;;;;;;4897907;29;20258;-83
2022/07/14 08:25:44;;;;;;;0.60;0.20;;;24.70;1.00;;;;;;4897595;29;20422;-83
2022/07/14 08:28:09;;;;;;;1.43;0.20;;;24.70;1.00;;;;;;4897892;29;20814;-83
2022/07/14 08:30:35;;;;;;;0.70;0.20;;;22.40;1.00;;;;;;4897907;29;20226;-83
2022/07/14 08:33:01;;;;;;;1.07;0.27;;;24.20;1.00;;;;;;4897814;29;20712;-82
2022/07/14 08:35:27;;;;;;;1.70;0.20;;;25.10;1.00;;;;;;4897833;29;20180;-82
2022/07/14 08:37:54;;;;;;;1.00;0.20;;;25.90;1.00;;;;;;4897799;29;20182;-83
2022/07/14 08:40:22;;;;;;;0.90;0.20;;;26.70;1.00;;;;;;4897427;29;20416;-82
2022/07/14 08:42:50;;;;;;;0.90;0.20;;;27.20;1.00;;;;;;4899676;29;20467;-83
2022/07/14 08:45:22;;;;;;;1.27;0.20;;;27.20;1.00;;;;;;4901643;29;20771;-82
2022/07/14 08:47:48;;;;;;;0.40;0.20;;;23.70;1.00;;;;;;4900241;29;20543;-83
2022/07/14 08:50:20;;;;;;;0.83;0.20;;;21.80;1.00;;;;;;4901457;29;20502;-83
2022/07/14 08:52:46;;;;;;;1.60;0.30;;;22.70;1.00;;;;;;4901411;29;20940;-80
2022/07/14 08:55:14;;;;;;;0.50;0.20;;;25.30;1.00;;;;;;4901047;29;20920;-83
2022/07/14 08:57:41;;;;;;;2.00;0.20;;;25.90;1.00;;;;;;4901358;29;20431;-82
2022/07/14 09:00:11;;;;;;;1.47;0.20;;;25.20;1.00;;;;;;4901472;29;20427;-83
2022/07/14 09:02:39;;;;;;;0.67;0.20;;;24.70;1.00;;;;;;4901249;29;20434;-82
2022/07/14 09:05:06;;;;;;;1.70;0.20;;;24.20;1.00;;;;;;4901252;29;20506;-83
2022/07/14 09:07:38;;;;;;;0.63;0.20;;;23.60;1.00;;;;;;4901026;29;20474;-82
2022/07/14 09:10:11;;;;;;;0.83;0.30;;;22.90;1.00;;;;;;4900629;29;20455;-83
2022/07/14 09:12:37;;;;;;;0.60;0.33;;;22.10;1.00;;;;;;4899910;29;20467;-82
2022/07/14 09:18:01;;;;;;;1.53;0.20;;;21.40;1.00;;;;;;4901370;29;20418;-82
2022/07/14 09:20:31;;;;;;;0.30;0.20;;;21.20;1.00;;;;;;4900966;29;20919;-83
2022/07/14 09:23:02;;;;;;;0.87;0.20;;;21.70;1.00;;;;;;4901018;29;20502;-83
2022/07/14 09:25:31;;;;;;;1.13;0.23;;;22.20;1.00;;;;;;4900463;29;20464;-84
2022/07/14 09:27:56;;;;;;;0.90;0.20;;;22.60;1.00;;;;;;4900763;29;20521;-82
2022/07/14 09:30:23;;;;;;;2.10;0.20;;;22.40;1.00;;;;;;4900744;29;20421;-83
2022/07/14 09:33:04;;;;;;;1.33;0.20;;;22.30;1.00;;;;;;4900734;29;20189;-82
2022/07/14 09:35:33;;;;;;;0.60;0.20;;;23.10;1.00;;;;;;4900641;29;20931;-83
2022/07/14 09:37:59;;;;;;;0.60;0.20;;;23.70;1.00;;;;;;4900639;29;20809;-84
2022/07/14 09:40:31;;;;;;;1.87;0.20;;;24.30;1.00;;;;;;4900260;29;20506;-84
2022/07/14 09:43:01;;;;;;;1.23;0.20;;;24.50;1.00;;;;;;4899303;29;20459;-84
2022/07/14 09:45:38;;;;;;;0.60;0.20;;;25.20;1.00;;;;;;4900590;29;20419;-83
2022/07/14 09:48:18;;;;;;;1.17;0.20;;;25.40;1.00;;;;;;4900388;29;20482;-83
2022/07/14 09:50:45;;;;;;;1.47;0.20;;;26.70;1.00;;;;;;4900382;29;20915;-83
2022/07/14 09:53:31;;;;;;;0.40;0.23;;;26.90;1.00;;;;;;4900151;29;20455;-83
2022/07/14 09:56:03;;;;;;;0.40;0.20;;;27.10;1.00;;;;;;4900114;29;20481;-83
2022/07/14 09:58:31;;;;;;;0.40;0.20;;;27.30;1.00;;;;;;4900260;29;20431;-84
2022/07/14 10:00:58;;;;;;;0.67;0.20;;;28.00;1.00;;;;;;4900237;29;20785;-84
2022/07/14 10:03:28;;;;;;;0.57;0.20;;;28.00;1.00;;;;;;4900200;29;20419;-83
2022/07/14 10:05:55;;;;;;;0.83;0.20;;;27.10;1.00;;;;;;4900178;29;20498;-84
2022/07/14 10:08:26;;;;;;;0.60;0.30;;;27.20;1.00;;;;;;4900010;29;20478;-84
2022/07/14 10:10:53;;;;;;;0.40;0.20;;;27.10;1.00;;;;;;4899546;29;20491;-82
2022/07/14 10:13:20;;;;;;;0.50;0.20;;;26.40;1.00;;;;;;4900029;29;20490;-83
2022/07/14 10:15:48;;;;;;;0.87;0.77;;;25.30;1.00;;;;;;4900041;29;20423;-83
2022/07/14 10:18:14;;;;;;;1.33;0.20;;;24.80;1.00;;;;;;4898666;29;20534;-83
2022/07/14 10:20:40;;;;;;;0.60;0.20;;;24.80;1.00;;;;;;4899837;29;20427;-83
2022/07/14 10:23:06;;;;;;;1.60;0.20;;;24.80;1.00;;;;;;4899908;29;20458;-83
2022/07/14 10:25:32;;;;;;;0.40;0.20;;;25.80;1.00;;;;;;4899472;29;20912;-83
2022/07/14 10:27:59;;;;;;;0.40;0.20;;;25.90;1.00;;;;;;4899648;29;20250;-83
2022/07/14 10:30:34;;;;;;;0.30;0.20;;;25.20;1.00;;;;;;4899594;29;20924;-83
2022/07/14 10:33:14;;;;;;;0.50;0.20;;;25.20;1.00;;;;;;4899641;29;20419;-83
2022/07/14 10:36:04;;;;;;;0.80;0.27;;;24.50;1.00;;;;;;4899499;29;20423;-82
2022/07/14 10:38:55;;;;;;;0.57;0.30;;;24.40;1.00;;;;;;4901565;29;20436;-83
2022/07/14 10:41:42;;;;;;;0.50;0.20;;;24.10;1.00;;;;;;4900653;29;20423;-83
2022/07/14 10:44:18;;;;;;;1.37;0.20;;;24.10;1.00;;;;;;4899510;29;20422;-83
2022/07/14 10:46:49;;;;;;;1.07;0.20;;;23.80;1.00;;;;;;4899106;29;20430;-81
2022/07/14 10:49:16;;;;;;;1.50;0.20;;;23.40;1.00;;;;;;4899362;29;20423;-82
2022/07/14 10:51:50;;;;;;;0.40;0.20;;;23.50;1.00;;;;;;4898130;29;20435;-82
2022/07/14 10:54:23;;;;;;;0.60;0.20;;;23.70;1.00;;;;;;4898934;29;20809;-82
2022/07/14 10:56:49;;;;;;;0.93;0.20;;;23.80;1.00;;;;;;4899228;29;20458;-82
2022/07/14 10:59:27;;;;;;;0.60;0.20;;;23.30;1.00;;;;;;4899029;29;20474;-82
2022/07/14 11:02:13;;;;;;;0.47;0.20;;;22.90;1.00;;;;;;4897883;29;20437;-82
2022/07/14 11:05:00;;;;;;;0.90;0.20;;;22.60;1.00;;;;;;4898516;29;20423;-81
2022/07/14 11:07:50;;;;;;;0.30;0.10;;;22.70;1.00;;;;;;4898944;29;20470;-82
2022/07/14 11:10:19;;;;;;;0.70;0.20;;;23.00;1.00;;;;;;4898413;29;20463;-82
2022/07/14 11:13:00;;;;;;;0.63;0.20;;;23.50;1.00;;;;;;4899047;29;20467;-82
2022/07/14 11:15:54;;;;;;;1.37;0.20;;;24.20;1.00;;;;;;4898935;29;20415;-82
2022/07/14 11:18:21;;;;;;;2.83;0.20;;;23.60;1.00;;;;;;4898827;29;20411;-81
2022/07/14 11:20:49;;;;;;;0.87;0.37;;;23.10;1.00;;;;;;4898797;29;20424;-81
2022/07/14 11:23:17;;;;;;;0.63;0.20;;;23.20;1.00;;;;;;4898795;29;20451;-81
2022/07/14 11:25:43;;;;;;;0.40;0.40;;;22.70;1.00;;;;;;4898428;29;20623;-82
2022/07/14 11:28:32;;;;;;;1.47;0.20;;;22.60;1.00;;;;;;4898608;29;20595;-81
2022/07/14 11:31:18;;;;;;;2.30;0.20;;;23.20;1.00;;;;;;4898740;29;20365;-82
2022/07/14 11:36:31;;;;;;;1.27;0.20;;;22.90;1.00;;;;;;4898836;29;20414;-80
2022/07/14 11:39:15;;;;;;;0.67;0.20;;;23.00;1.00;;;;;;4898406;29;20450;-81
2022/07/14 11:41:42;;;;;;;0.67;0.23;;;23.20;1.00;;;;;;4898400;29;20991;-82
2022/07/14 11:44:40;;;;;;;0.90;0.40;;;23.50;1.00;;;;;;4898442;29;20499;-82
2022/07/14 11:47:18;;;;;;;0.90;0.20;;;23.20;1.00;;;;;;4897020;29;20609;-80
2022/07/14 11:50:10;;;;;;;0.50;0.20;;;22.60;1.00;;;;;;4897191;29;20423;-81
2022/07/14 11:52:40;;;;;;;0.93;0.20;;;22.00;1.00;;;;;;4898936;29;20435;-82
2022/07/14 11:55:10;;;;;;;2.67;0.20;;;21.80;1.00;;;;;;4897896;29;20439;-82
2022/07/14 11:57:35;;;;;;;1.47;0.20;;;21.60;1.00;;;;;;4898198;29;20426;-82
2022/07/14 12:00:09;;;;;;;2.00;0.20;;;21.50;1.00;;;;;;4898257;29;20931;-81
2022/07/14 12:02:52;;;;;;;0.73;0.50;;;21.90;1.00;;;;;;4898255;29;20174;-81
2022/07/14 12:05:20;;;;;;;0.40;0.20;;;22.30;1.00;;;;;;4898161;29;20979;-81
2022/07/14 12:07:48;;;;;;;0.50;0.20;;;22.50;1.00;;;;;;4898070;29;20475;-81
2022/07/14 12:10:15;;;;;;;1.23;0.20;;;22.20;1.00;;;;;;4897610;29;20517;-82
2022/07/14 12:12:45;;;;;;;0.40;0.20;;;21.90;1.00;;;;;;4898069;29;20422;-81
2022/07/14 12:15:11;;;;;;;0.37;0.20;;;21.70;1.00;;;;;;4896773;29;20423;-81
2022/07/14 12:17:47;;;;;;;0.40;0.20;;;21.80;1.00;;;;;;4897094;29;20846;-81
2022/07/14 12:20:13;;;;;;;0.30;0.20;;;22.10;1.00;;;;;;4897971;29;20423;-82
2022/07/14 12:22:52;;;;;;;1.00;0.30;;;22.50;1.00;;;;;;4897739;29;20435;-81
2022/07/14 12:25:42;;;;;;;0.40;0.20;;;22.80;1.00;;;;;;4897572;29;20419;-81
2022/07/14 12:28:26;;;;;;;2.43;0.20;;;23.00;1.00;;;;;;4897674;29;20990;-82
2022/07/14 12:30:54;;;;;;;1.80;0.20;;;22.60;1.00;;;;;;4897944;29;20411;-81
2022/07/14 12:33:41;;;;;;;0.80;0.20;;;22.70;1.00;;;;;;4897871;29;20415;-82
2022/07/14 12:36:19;;;;;;;0.87;0.30;;;22.40;1.00;;;;;;4897898;29;20510;-80
2022/07/14 12:38:46;;;;;;;0.70;0.20;;;22.00;1.00;;;;;;4897873;29;20465;-82
2022/07/14 12:41:14;;;;;;;0.50;0.20;;;21.80;1.00;;;;;;4897527;29;20415;-81
2022/07/14 12:43:42;;;;;;;1.43;0.20;;;21.50;1.00;;;;;;4897803;29;20529;-81
2022/07/14 12:46:22;;;;;;;0.90;0.20;;;21.50;1.00;;;;;;4897705;29;20453;-81
2022/07/14 12:48:48;;;;;;;0.80;0.20;;;21.50;1.00;;;;;;4897679;29;20540;-81
2022/07/14 12:51:44;;;;;;;0.93;0.20;;;21.60;1.00;;;;;;4897756;29;20938;-81
2022/07/14 12:54:18;;;;;;;0.57;0.20;;;21.70;1.00;;;;;;4897370;29;20275;-81
2022/07/14 12:56:43;;;;;;;0.50;0.20;;;21.50;1.00;;;;;;4897779;29;20500;-81
2022/07/14 12:59:21;;;;;;;0.70;0.40;;;21.40;1.00;;;;;;4896456;29;20520;-81
2022/07/14 13:01:55;;;;;;;1.23;0.37;;;21.50;1.00;;;;;;4897740;29;20528;-81
2022/07/14 13:04:45;;;;;;;0.93;0.37;;;21.70;1.00;;;;;;4897703;29;20792;-81
2022/07/14 13:07:18;;;;;;;0.87;0.20;;;21.70;1.00;;;;;;4897578;29;20465;-82
2022/07/14 13:10:05;;;;;;;1.07;0.20;;;21.50;1.00;;;;;;4897106;29;20989;-81